createdAt,value
2019-03-20T00:02:15.471Z,8.30
2019-03-20T00:04:49.759Z,8.50
2019-03-20T00:07:11.293Z,8.40
2019-03-20T00:09:38.855Z,8.50
2019-03-20T00:12:06.333Z,8.50
2019-03-20T00:14:34.947Z,8.50
2019-03-20T00:17:04.200Z,8.50
2019-03-20T00:19:32.368Z,8.50
2019-03-20T00:21:59.855Z,8.50
2019-03-20T00:24:27.413Z,8.60
2019-03-20T00:26:54.977Z,8.50
2019-03-20T00:29:22.438Z,8.60
2019-03-20T00:31:49.896Z,8.60
2019-03-20T00:34:17.372Z,8.60
2019-03-20T00:36:44.923Z,8.50
2019-03-20T00:39:12.398Z,8.60
2019-03-20T00:41:39.948Z,8.60
2019-03-20T00:44:07.514Z,8.60
2019-03-20T00:46:34.975Z,8.60
2019-03-20T00:49:02.427Z,8.60
2019-03-20T00:51:30.010Z,8.60
2019-03-20T00:53:57.567Z,8.60
2019-03-20T00:56:25.035Z,8.60
2019-03-20T00:58:52.595Z,8.60
2019-03-20T01:01:20.061Z,8.60
2019-03-20T01:03:47.516Z,8.60
2019-03-20T01:06:15.127Z,8.70
2019-03-20T01:08:42.697Z,8.70
2019-03-20T01:11:10.204Z,8.70
2019-03-20T01:13:37.767Z,8.70
2019-03-20T01:16:05.238Z,8.70
2019-03-20T01:18:34.216Z,8.70
2019-03-20T01:21:01.675Z,8.70
2019-03-20T01:23:29.141Z,8.80
2019-03-20T01:25:56.611Z,8.80
2019-03-20T01:28:24.072Z,8.80
2019-03-20T01:30:51.561Z,8.80
2019-03-20T01:33:19.800Z,8.80
2019-03-20T01:35:47.291Z,8.80
2019-03-20T01:38:14.893Z,8.80
2019-03-20T01:40:42.416Z,8.80
2019-03-20T01:43:09.901Z,8.80
2019-03-20T01:45:38.137Z,8.80
2019-03-20T01:48:06.286Z,8.80
2019-03-20T01:50:33.760Z,8.80
2019-03-20T01:53:01.217Z,8.80
2019-03-20T01:55:28.664Z,8.80
2019-03-20T01:57:56.181Z,8.80
2019-03-20T02:00:23.660Z,8.80
2019-03-20T02:02:51.216Z,8.80
2019-03-20T02:05:18.686Z,8.90
2019-03-20T02:07:46.143Z,8.80
2019-03-20T02:10:14.428Z,8.90
2019-03-20T02:12:41.878Z,8.80
2019-03-20T02:15:10.261Z,8.90
2019-03-20T02:17:37.740Z,8.90
2019-03-20T02:20:05.205Z,8.90
2019-03-20T02:22:33.454Z,8.90
2019-03-20T02:25:00.957Z,8.90
2019-03-20T02:27:29.181Z,8.90
2019-03-20T02:29:56.637Z,8.80
2019-03-20T02:32:24.178Z,8.90
2019-03-20T02:34:51.632Z,8.90
2019-03-20T02:37:19.153Z,8.80
2019-03-20T02:39:48.131Z,8.90
2019-03-20T02:42:15.850Z,8.80
2019-03-20T02:44:44.211Z,8.90
2019-03-20T02:47:11.680Z,8.80
2019-03-20T02:49:39.310Z,8.90
2019-03-20T02:52:07.506Z,8.80
2019-03-20T02:54:34.972Z,8.80
2019-03-20T02:57:02.536Z,8.80
2019-03-20T02:59:30.011Z,8.90
2019-03-20T03:01:57.562Z,8.80
2019-03-20T03:04:25.023Z,8.90
2019-03-20T03:06:52.497Z,8.80
2019-03-20T03:09:20.053Z,8.90
2019-03-20T03:11:48.322Z,8.90
2019-03-20T03:14:15.766Z,8.90
2019-03-20T03:16:43.254Z,8.80
2019-03-20T03:19:10.707Z,8.80
2019-03-20T03:21:38.279Z,8.80
2019-03-20T03:24:05.838Z,8.80
2019-03-20T03:26:33.299Z,8.80
2019-03-20T03:29:00.758Z,8.80
2019-03-20T03:31:28.338Z,8.80
2019-03-20T03:33:55.895Z,8.80
2019-03-20T03:36:23.402Z,8.80
2019-03-20T03:38:50.870Z,8.70
2019-03-20T03:41:18.326Z,8.70
2019-03-20T03:43:45.795Z,8.70
2019-03-20T03:46:13.266Z,8.70
2019-03-20T03:48:40.749Z,8.70
2019-03-20T03:51:08.234Z,8.70
2019-03-20T03:53:35.690Z,8.70
2019-03-20T03:56:03.652Z,8.70
2019-03-20T03:58:32.870Z,8.70
2019-03-20T04:00:58.605Z,8.70
2019-03-20T04:03:26.081Z,8.70
2019-03-20T04:05:54.307Z,8.70
2019-03-20T04:08:21.793Z,8.70
2019-03-20T04:10:49.251Z,8.70
2019-03-20T04:13:16.733Z,8.70
2019-03-20T04:15:45.001Z,8.80
2019-03-20T04:18:12.554Z,8.80
2019-03-20T04:20:40.009Z,8.80
2019-03-20T04:23:07.502Z,8.90
2019-03-20T04:25:35.767Z,8.90
2019-03-20T04:28:04.271Z,8.90
2019-03-20T04:30:31.829Z,8.90
2019-03-20T04:33:00.082Z,9.00
2019-03-20T04:35:27.668Z,8.90
2019-03-20T04:37:55.278Z,8.90
2019-03-20T04:40:22.753Z,9.00
2019-03-20T04:42:50.251Z,9.00
2019-03-20T04:45:17.728Z,9.00
2019-03-20T04:47:45.966Z,9.10
2019-03-20T04:50:13.454Z,9.10
2019-03-20T04:52:40.998Z,9.10
2019-03-20T04:55:08.477Z,9.10
2019-03-20T04:57:35.965Z,9.10
2019-03-20T05:00:13.944Z,9.20
2019-03-20T05:02:42.189Z,9.20
2019-03-20T05:05:09.649Z,9.20
2019-03-20T05:07:37.129Z,9.20
2019-03-20T05:10:05.477Z,9.20
2019-03-20T05:12:32.976Z,9.20
2019-03-20T05:15:00.427Z,9.20
2019-03-20T05:17:27.904Z,9.30
2019-03-20T05:19:55.383Z,9.30
2019-03-20T05:22:22.889Z,9.30
2019-03-20T05:24:50.349Z,9.30
2019-03-20T05:27:17.866Z,9.30
2019-03-20T05:29:45.337Z,9.30
2019-03-20T05:32:12.886Z,9.30
2019-03-20T05:34:40.386Z,9.30
2019-03-20T05:37:10.648Z,9.30
2019-03-20T05:39:36.290Z,9.30
2019-03-20T05:42:04.789Z,9.30
2019-03-20T05:44:33.012Z,9.30
2019-03-20T05:47:00.496Z,9.30
2019-03-20T05:49:28.040Z,9.30
2019-03-20T05:51:55.563Z,9.30
2019-03-20T05:54:23.017Z,9.30
2019-03-20T05:56:50.587Z,9.30
2019-03-20T05:59:18.043Z,9.30
2019-03-20T06:01:45.529Z,9.30
2019-03-20T06:04:13.757Z,9.30
2019-03-20T06:06:41.259Z,9.30
2019-03-20T06:09:08.807Z,9.40
2019-03-20T06:11:36.384Z,9.30
2019-03-20T06:14:04.639Z,9.30
2019-03-20T06:16:32.178Z,9.30
2019-03-20T06:19:00.379Z,9.40
2019-03-20T06:21:27.878Z,9.40
2019-03-20T06:23:56.100Z,9.40
2019-03-20T06:26:23.587Z,9.40
2019-03-20T06:28:51.056Z,9.40
2019-03-20T06:31:18.913Z,9.40
2019-03-20T06:33:46.785Z,9.40
2019-03-20T06:36:14.310Z,9.40
2019-03-20T06:38:42.547Z,9.40
2019-03-20T06:41:10.053Z,9.40
2019-03-20T06:43:37.538Z,9.50
2019-03-20T06:46:05.030Z,9.50
2019-03-20T06:48:32.501Z,9.50
2019-03-20T06:51:00.486Z,9.50
2019-03-20T06:53:27.994Z,9.50
2019-03-20T06:55:55.454Z,9.50
2019-03-20T06:58:23.003Z,9.60
2019-03-20T07:00:53.921Z,9.60
2019-03-20T07:06:23.397Z,9.60
2019-03-20T07:08:57.539Z,9.70
2019-03-20T07:11:24.524Z,9.70
2019-03-20T07:13:52.055Z,9.70
2019-03-20T07:16:19.608Z,9.70
2019-03-20T07:18:47.154Z,9.80
2019-03-20T07:21:14.619Z,9.80
2019-03-20T07:23:42.120Z,9.80
2019-03-20T07:26:10.382Z,9.90
2019-03-20T07:28:37.843Z,9.80
2019-03-20T07:31:14.694Z,9.80
2019-03-20T07:33:33.982Z,9.90
2019-03-20T07:36:01.552Z,9.90
2019-03-20T07:38:29.009Z,10.00
2019-03-20T07:40:56.487Z,10.00
2019-03-20T07:43:23.972Z,10.10
2019-03-20T07:45:52.192Z,10.20
2019-03-20T07:48:22.363Z,10.20
2019-03-20T07:50:48.041Z,10.10
2019-03-20T07:53:15.528Z,10.10
2019-03-20T07:55:43.111Z,10.20
2019-03-20T07:58:11.346Z,10.20
2019-03-20T08:00:38.811Z,10.20
2019-03-20T08:03:06.279Z,10.20
2019-03-20T08:05:33.854Z,10.10
2019-03-20T08:08:07.154Z,10.20
2019-03-20T08:10:29.679Z,10.10
2019-03-20T08:12:57.160Z,10.10
2019-03-20T08:15:24.621Z,10.20
2019-03-20T08:17:52.095Z,10.20
2019-03-20T08:20:20.363Z,10.30
2019-03-20T08:22:47.831Z,10.40
2019-03-20T08:25:15.304Z,10.40
2019-03-20T08:27:42.855Z,10.40
2019-03-20T08:30:13.750Z,10.40
2019-03-20T08:32:39.324Z,10.50
2019-03-20T08:35:06.794Z,10.50
2019-03-20T08:37:34.340Z,10.50
2019-03-20T08:40:05.048Z,10.70
2019-03-20T08:42:32.542Z,10.70
2019-03-20T08:44:59.997Z,10.60
2019-03-20T08:47:27.459Z,10.60
2019-03-20T08:49:55.025Z,10.70
2019-03-20T08:52:22.485Z,10.60
2019-03-20T08:54:49.976Z,10.70
2019-03-20T08:57:17.448Z,10.60
2019-03-20T08:59:45.694Z,10.70
2019-03-20T09:02:14.667Z,10.60
2019-03-20T09:04:42.162Z,10.60
2019-03-20T09:07:09.630Z,10.50
2019-03-20T09:09:37.107Z,10.60
2019-03-20T09:12:05.334Z,10.60
2019-03-20T09:14:32.804Z,10.60
2019-03-20T09:17:00.286Z,10.70
2019-03-20T09:19:27.761Z,10.70
2019-03-20T09:21:55.316Z,10.70
2019-03-20T09:24:23.540Z,10.60
2019-03-20T09:26:51.010Z,10.60
2019-03-20T09:29:19.037Z,10.60
2019-03-20T09:31:46.795Z,10.60
2019-03-20T09:34:14.289Z,10.50
2019-03-20T09:36:43.566Z,10.70
2019-03-20T09:39:10.797Z,10.70
2019-03-20T09:41:38.275Z,10.70
2019-03-20T09:44:06.507Z,10.80
2019-03-20T09:46:34.021Z,10.80
2019-03-20T09:49:01.587Z,10.70
2019-03-20T09:51:29.197Z,10.80
2019-03-20T09:53:56.733Z,10.80
2019-03-20T09:56:24.994Z,10.90
2019-03-20T09:58:52.469Z,10.90
2019-03-20T10:01:20.016Z,10.90
2019-03-20T10:03:47.579Z,11.00
2019-03-20T10:06:15.059Z,10.90
2019-03-20T10:08:42.519Z,10.80
2019-03-20T10:11:09.989Z,10.80
2019-03-20T10:13:38.268Z,10.80
2019-03-20T10:16:05.809Z,10.80
2019-03-20T10:18:33.277Z,10.70
2019-03-20T10:21:00.757Z,10.80
2019-03-20T10:23:28.996Z,10.80
2019-03-20T10:25:56.580Z,10.70
2019-03-20T10:28:24.047Z,10.80
2019-03-20T10:30:52.283Z,10.90
2019-03-20T10:33:19.750Z,10.80
2019-03-20T10:35:50.579Z,10.90
2019-03-20T10:38:14.710Z,10.80
2019-03-20T10:40:43.696Z,10.90
2019-03-20T10:43:11.167Z,10.90
2019-03-20T10:45:38.622Z,11.00
2019-03-20T10:48:07.607Z,11.10
2019-03-20T10:50:35.092Z,11.10
2019-03-20T10:53:03.476Z,11.10
2019-03-20T10:55:31.034Z,11.20
2019-03-20T10:57:58.606Z,11.10
2019-03-20T11:00:26.087Z,11.00
2019-03-20T11:02:54.338Z,11.20
2019-03-20T11:05:21.814Z,11.20
2019-03-20T11:07:49.392Z,11.20
2019-03-20T11:10:20.434Z,11.30
2019-03-20T11:12:47.910Z,11.20
2019-03-20T11:15:16.169Z,11.40
2019-03-20T11:17:43.631Z,11.30
2019-03-20T11:20:12.310Z,11.50
2019-03-20T11:22:39.885Z,11.50
2019-03-20T11:25:08.142Z,11.70
2019-03-20T11:27:35.642Z,11.70
2019-03-20T11:30:17.664Z,11.60
2019-03-20T11:32:43.326Z,11.60
2019-03-20T11:35:10.787Z,11.60
2019-03-20T11:37:38.254Z,11.70
2019-03-20T11:40:21.367Z,11.60
2019-03-20T11:42:48.838Z,11.60
2019-03-20T11:45:16.402Z,11.60
2019-03-20T11:47:43.862Z,11.60
2019-03-20T11:50:17.667Z,11.70
2019-03-20T11:52:45.236Z,11.70
2019-03-20T11:55:12.785Z,11.70
2019-03-20T11:57:40.368Z,11.80
2019-03-20T12:00:12.306Z,11.80
2019-03-20T12:02:39.792Z,11.80
2019-03-20T12:05:07.362Z,11.80
2019-03-20T12:07:34.917Z,11.80
2019-03-20T12:10:02.392Z,12.00
2019-03-20T12:12:30.661Z,12.10
2019-03-20T12:14:58.134Z,12.00
2019-03-20T12:17:25.601Z,12.00
2019-03-20T12:19:53.840Z,12.20
2019-03-20T12:22:22.438Z,12.20
2019-03-20T12:24:49.906Z,12.20
2019-03-20T12:27:17.465Z,12.30
2019-03-20T12:29:45.036Z,12.40
2019-03-20T12:32:12.608Z,12.40
2019-03-20T12:34:40.091Z,12.50
2019-03-20T12:37:08.350Z,12.70
2019-03-20T12:39:38.304Z,12.70
2019-03-20T12:42:04.085Z,12.70
2019-03-20T12:44:31.565Z,12.60
2019-03-20T12:46:59.843Z,12.70
2019-03-20T12:49:27.394Z,12.70
2019-03-20T12:51:54.967Z,12.70
2019-03-20T12:54:22.436Z,12.50
2019-03-20T12:56:49.927Z,12.40
2019-03-20T12:59:17.399Z,12.50
2019-03-20T13:01:44.875Z,12.50
2019-03-20T13:04:12.337Z,12.50
2019-03-20T13:06:39.834Z,12.50
2019-03-20T13:09:07.299Z,12.60
2019-03-20T13:11:34.776Z,12.60
2019-03-20T13:14:03.118Z,12.60
2019-03-20T13:16:30.582Z,12.70
2019-03-20T13:18:58.058Z,12.70
2019-03-20T13:21:25.533Z,12.80
2019-03-20T13:23:52.997Z,12.80
2019-03-20T13:26:20.460Z,12.80
2019-03-20T13:28:48.025Z,12.80
2019-03-20T13:31:16.408Z,12.80
2019-03-20T13:33:43.874Z,12.90
2019-03-20T13:36:12.161Z,13.00
2019-03-20T13:38:40.414Z,13.10
2019-03-20T13:41:07.879Z,13.10
2019-03-20T13:43:35.345Z,13.00
2019-03-20T13:46:03.839Z,13.00
2019-03-20T13:48:32.808Z,13.10
2019-03-20T13:51:00.273Z,13.20
2019-03-20T13:53:27.941Z,13.10
2019-03-20T13:55:55.413Z,13.20
2019-03-20T13:58:22.884Z,13.20
2019-03-20T14:00:50.384Z,13.30
2019-03-20T14:03:18.595Z,13.30
2019-03-20T14:05:46.075Z,13.30
2019-03-20T14:08:13.643Z,13.30
2019-03-20T14:10:50.392Z,13.20
2019-03-20T14:13:09.378Z,13.40
2019-03-20T14:15:36.835Z,13.40
2019-03-20T14:18:06.832Z,13.40
2019-03-20T14:20:34.285Z,13.40
2019-03-20T14:23:02.528Z,13.20
2019-03-20T14:25:29.985Z,13.20
2019-03-20T14:27:57.456Z,13.10
2019-03-20T14:30:26.634Z,13.20
2019-03-20T14:32:54.113Z,13.20
2019-03-20T14:35:21.600Z,13.10
2019-03-20T14:37:49.153Z,13.20
2019-03-20T14:40:19.147Z,13.10
2019-03-20T14:42:46.613Z,13.10
2019-03-20T14:45:14.090Z,13.10
2019-03-20T14:47:42.509Z,13.10
2019-03-20T14:50:10.660Z,13.00
2019-03-20T14:52:38.907Z,13.20
2019-03-20T14:55:06.373Z,13.20
2019-03-20T14:57:33.829Z,13.30
2019-03-20T15:00:01.395Z,13.30
2019-03-20T15:02:28.860Z,13.20
2019-03-20T15:04:56.351Z,13.10
2019-03-20T15:07:24.580Z,13.00
2019-03-20T15:09:52.090Z,13.00
2019-03-20T15:12:20.341Z,13.00
2019-03-20T15:14:47.867Z,13.00
2019-03-20T15:17:15.337Z,13.00
2019-03-20T15:19:42.847Z,13.00
2019-03-20T15:22:10.370Z,12.90
2019-03-20T15:24:37.807Z,12.90
2019-03-20T15:27:05.295Z,13.00
2019-03-20T15:29:32.757Z,13.10
2019-03-20T15:32:00.250Z,13.10
2019-03-20T15:34:27.741Z,13.10
2019-03-20T15:36:55.961Z,13.10
2019-03-20T15:39:23.570Z,13.00
2019-03-20T15:41:51.833Z,12.90
2019-03-20T15:44:19.297Z,12.90
2019-03-20T15:46:46.768Z,12.80
2019-03-20T15:49:14.321Z,12.80
2019-03-20T15:51:41.780Z,12.80
2019-03-20T15:54:09.252Z,12.80
2019-03-20T15:56:36.810Z,12.70
2019-03-20T15:59:05.097Z,12.60
2019-03-20T16:01:34.067Z,12.70
2019-03-20T16:04:01.599Z,12.70
2019-03-20T16:06:29.070Z,12.70
2019-03-20T16:08:56.975Z,12.70
2019-03-20T16:11:24.146Z,12.80
2019-03-20T16:13:51.608Z,12.80
2019-03-20T16:16:19.162Z,12.80
2019-03-20T16:18:46.729Z,12.70
2019-03-20T16:21:14.281Z,12.70
2019-03-20T16:23:41.751Z,12.70
2019-03-20T16:26:09.320Z,12.70
2019-03-20T16:28:36.883Z,12.70
2019-03-20T16:31:04.343Z,12.60
2019-03-20T16:33:31.807Z,12.70
2019-03-20T16:35:59.271Z,12.60
2019-03-20T16:38:27.546Z,12.50
2019-03-20T16:40:55.118Z,12.50
2019-03-20T16:43:22.578Z,12.40
2019-03-20T16:45:50.259Z,12.40
2019-03-20T16:48:17.815Z,12.50
2019-03-20T16:50:45.288Z,12.30
2019-03-20T16:53:12.752Z,12.50
2019-03-20T16:55:41.016Z,12.20
2019-03-20T16:58:08.485Z,12.20
2019-03-20T17:00:36.055Z,12.20
2019-03-20T17:03:04.430Z,12.10
2019-03-20T17:05:32.681Z,12.10
2019-03-20T17:08:00.266Z,12.10
2019-03-20T17:10:34.180Z,12.00
2019-03-20T17:13:01.647Z,12.10
2019-03-20T17:15:48.645Z,11.90
2019-03-20T17:18:16.122Z,12.00
2019-03-20T17:20:45.141Z,11.90
2019-03-20T17:23:13.383Z,11.80
2019-03-20T17:25:40.965Z,11.80
2019-03-20T17:28:08.548Z,11.70
2019-03-20T17:30:36.774Z,11.70
2019-03-20T17:33:04.236Z,11.70
2019-03-20T17:35:31.846Z,11.80
2019-03-20T17:38:00.110Z,11.70
2019-03-20T17:40:27.581Z,11.60
2019-03-20T17:42:55.041Z,11.70
2019-03-20T17:45:24.227Z,11.70
2019-03-20T17:47:51.798Z,11.80
2019-03-20T17:50:22.734Z,11.70
2019-03-20T17:52:50.194Z,11.80
2019-03-20T17:55:18.423Z,11.60
2019-03-20T17:57:45.919Z,11.60
2019-03-20T18:00:18.140Z,11.60
2019-03-20T18:02:46.365Z,11.70
2019-03-20T18:05:13.827Z,11.60
2019-03-20T18:07:41.289Z,11.60
2019-03-20T18:10:08.769Z,11.70
2019-03-20T18:12:36.246Z,11.60
2019-03-20T18:15:04.476Z,12.20
2019-03-20T18:17:31.938Z,12.20
2019-03-20T18:19:59.411Z,12.30
2019-03-20T18:22:26.876Z,12.20
2019-03-20T18:24:54.361Z,12.30
2019-03-20T18:27:21.830Z,11.90
2019-03-20T18:29:49.305Z,11.70
2019-03-20T18:32:17.574Z,11.50
2019-03-20T18:34:45.134Z,11.50
2019-03-20T18:37:12.605Z,11.40
2019-03-20T18:39:40.070Z,11.40
2019-03-20T18:42:09.531Z,11.40
2019-03-20T18:44:35.102Z,11.30
2019-03-20T18:47:04.334Z,11.40
2019-03-20T18:49:31.796Z,11.40
2019-03-20T18:51:59.284Z,11.30
2019-03-20T18:54:26.750Z,11.40
2019-03-20T18:56:54.227Z,11.40
2019-03-20T18:59:21.730Z,11.50
2019-03-20T19:01:50.058Z,11.50
2019-03-20T19:04:17.594Z,11.40
2019-03-20T19:06:45.055Z,11.40
2019-03-20T19:09:12.526Z,11.40
2019-03-20T19:11:40.043Z,11.40
2019-03-20T19:14:07.520Z,11.40
2019-03-20T19:16:35.751Z,11.30
2019-03-20T19:19:04.534Z,11.40
2019-03-20T19:21:32.021Z,11.30
2019-03-20T19:23:59.511Z,11.40
2019-03-20T19:26:27.797Z,11.30
2019-03-20T19:28:56.011Z,11.50
2019-03-20T19:31:23.513Z,11.50
2019-03-20T19:33:50.987Z,11.40
2019-03-20T19:36:19.247Z,11.20
2019-03-20T19:38:46.734Z,11.30
2019-03-20T19:41:15.008Z,11.40
2019-03-20T19:43:42.489Z,11.40
2019-03-20T19:46:10.797Z,11.30
2019-03-20T19:48:38.305Z,11.30
2019-03-20T19:51:05.769Z,11.40
2019-03-20T19:53:34.061Z,11.30
2019-03-20T19:56:01.523Z,11.30
2019-03-20T19:58:28.986Z,11.30
2019-03-20T20:00:56.571Z,11.30
2019-03-20T20:03:24.797Z,11.30
2019-03-20T20:05:52.267Z,11.30
2019-03-20T20:08:19.744Z,11.30
2019-03-20T20:10:47.213Z,11.30
2019-03-20T20:13:14.769Z,11.30
2019-03-20T20:15:42.223Z,11.40
2019-03-20T20:18:09.697Z,11.30
2019-03-20T20:20:37.929Z,11.20
2019-03-20T20:23:05.387Z,11.20
2019-03-20T20:25:32.854Z,11.20
2019-03-20T20:28:00.325Z,11.20
2019-03-20T20:30:27.777Z,11.20
2019-03-20T20:32:55.243Z,11.20
2019-03-20T20:35:22.761Z,11.20
2019-03-20T20:37:50.210Z,11.20
2019-03-20T20:40:22.502Z,11.20
2019-03-20T20:42:50.733Z,11.10
2019-03-20T20:45:18.197Z,11.10
2019-03-20T20:47:45.660Z,11.10
2019-03-20T20:50:14.017Z,11.20
2019-03-20T20:52:41.482Z,11.20
2019-03-20T20:55:11.748Z,11.20
2019-03-20T20:57:39.220Z,11.20
2019-03-20T21:00:19.270Z,11.20
2019-03-20T21:02:46.759Z,11.20
2019-03-20T21:05:14.773Z,11.20
2019-03-20T21:07:42.285Z,11.10
2019-03-20T21:10:12.580Z,11.20
2019-03-20T21:12:42.484Z,11.20
2019-03-20T21:15:16.157Z,11.20
2019-03-20T21:17:43.688Z,11.10
2019-03-20T21:20:11.134Z,11.20
2019-03-20T21:22:43.144Z,11.30
2019-03-20T21:25:10.617Z,11.30
2019-03-20T21:27:49.898Z,11.20
2019-03-20T21:30:18.186Z,11.20
2019-03-20T21:32:49.644Z,11.20
2019-03-20T21:38:13.071Z,11.10
2019-03-20T21:40:43.501Z,11.10
2019-03-20T21:43:22.850Z,11.20
2019-03-20T21:48:53.810Z,11.30
2019-03-20T21:51:21.373Z,11.30
2019-03-20T21:53:50.518Z,11.20
2019-03-20T21:59:25.959Z,11.20
2019-03-20T22:02:05.832Z,11.40
2019-03-20T22:04:33.301Z,11.30
2019-03-20T22:07:05.260Z,11.30
2019-03-20T22:09:42.268Z,11.20
2019-03-20T22:12:26.463Z,11.20
2019-03-20T22:14:54.790Z,11.20
2019-03-20T22:20:37.684Z,11.10
2019-03-20T22:23:19.660Z,11.00
2019-03-20T22:29:01.336Z,11.00
2019-03-20T22:31:28.860Z,11.00
2019-03-20T22:34:08.286Z,11.00
2019-03-20T22:36:35.860Z,11.10
2019-03-20T22:39:17.382Z,10.80
2019-03-20T22:42:02.230Z,10.80
2019-03-20T22:44:30.482Z,10.70
2019-03-20T22:47:04.012Z,10.70
2019-03-20T22:49:32.257Z,10.60
2019-03-20T22:52:17.383Z,10.50
2019-03-20T23:01:05.758Z,10.70
2019-03-20T23:03:35.715Z,10.80
2019-03-20T23:06:04.355Z,10.60
2019-03-20T23:08:31.870Z,10.50
2019-03-20T23:11:00.109Z,10.50
2019-03-20T23:13:27.692Z,10.50
2019-03-20T23:15:55.162Z,10.40
2019-03-20T23:18:22.627Z,10.30
2019-03-20T23:20:50.852Z,10.40
2019-03-20T23:23:18.355Z,10.40
2019-03-20T23:25:45.809Z,10.40
2019-03-20T23:28:13.275Z,10.30
2019-03-20T23:30:40.730Z,10.30
2019-03-20T23:33:08.296Z,10.30
2019-03-20T23:35:35.800Z,10.40
2019-03-20T23:38:03.430Z,10.30
2019-03-20T23:40:30.892Z,10.20
2019-03-20T23:43:03.903Z,10.20
2019-03-20T23:45:32.136Z,10.20
2019-03-20T23:48:16.099Z,10.20
2019-03-20T23:50:43.690Z,10.20
2019-03-20T23:53:11.926Z,10.20
2019-03-20T23:55:39.558Z,10.20
2019-03-20T23:58:07.068Z,10.10
